Alexander Maersk — OZRC2 — position and weather

sailwx.info

Track history (hours):
 
Tides and Currents Weather Stations Pressure Air Temp Water Temp Dewpoint Dewpoint Depression Visibility Wind Speed Wind Dir Waves Ship Positions

Alexander Maersk

Last reported at 2015-May-04 06:33 UTC. Time now 2015-May-04 07:01 UTC.
Position N 34°36' E 014°29'.

Length 155 m; draft 9 m.

Type: Ship. MMSI: 219470000.

Date/timePositionNaut miles runAvg speedWind from/ knotsBaromVisibWave heightAir tempDewpointWater temp
2015-May-04 06:33N 34°36' E 014°29'11 8.8
2015-May-04 05:20N 34°46' E 014°30'7 9.1
2015-May-04 04:33N 34°53' E 014°31'9 9.3
2015-May-04 03:33N 35°03' E 014°32'9 9.3
2015-May-04 02:33N 35°12' E 014°32'9 9.1
2015-May-04 01:33N 35°21' E 014°32'9 8.8
2015-May-04 00:33N 35°30' E 014°33'9 8.8
2015-May-03 23:32N 35°39' E 014°34'9 8.9
2015-May-03 22:33N 35°47' E 014°34'2 2.0
2015-May-03 21:29N 35°49' E 014°33'0 0.0
2015-May-03 20:29N 35°49' E 014°33'0 0.0
2015-May-03 19:29N 35°49' E 014°33'0 0.0
2015-May-03 18:32N 35°49' E 014°33'0 0.0
2015-May-03 16:17N 35°49' E 014°33'0 0.0
2015-May-03 13:26N 35°49' E 014°33'0 0.0
2015-May-03 11:05N 35°49' E 014°33'0 0.0
2015-May-03 10:08N 35°49' E 014°33'0 0.0
2015-May-03 09:29N 35°49' E 014°33'0 0.0
2015-May-03 08:32N 35°49' E 014°33'0 0.0
2015-May-03 07:08N 35°49' E 014°33'0 0.0
2015-May-03 06:32N 35°49' E 014°33'0 0.0
2015-May-03 05:20N 35°49' E 014°33'0 0.0
2015-May-03 04:23N 35°49' E 014°33'0 0.0
2015-May-03 03:33N 35°49' E 014°33'0 0.0
2015-May-03 02:23N 35°49' E 014°33'0 0.0
2015-May-03 01:32N 35°49' E 014°33'0 0.0
2015-May-03 00:29N 35°49' E 014°33'0 0.0
2015-May-02 23:29N 35°49' E 014°33'0 0.0
2015-May-02 22:32N 35°49' E 014°33'0 0.0
2015-May-02 21:26N 35°49' E 014°33'0 0.0
2015-May-02 20:29N 35°49' E 014°33'2 1.7
2015-May-02 19:33N 35°49' E 014°35'4 4.5
2015-May-02 18:33N 35°52' E 014°39'0 0.3
2015-May-02 17:32N 35°52' E 014°39'0 0.0
2015-May-02 16:32N 35°52' E 014°39'0 0.0
2015-May-02 15:29N 35°52' E 014°39'0 0.0
2015-May-02 14:26N 35°52' E 014°39'0 0.0
2015-May-02 13:32N 35°52' E 014°39'0 0.0
2015-May-02 12:32N 35°52' E 014°39'0 0.0
2015-May-02 11:32N 35°52' E 014°39'0 0.0
2015-May-02 10:32N 35°52' E 014°39'0 0.0
2015-May-02 09:32N 35°52' E 014°39'0 0.0
2015-May-02 08:32N 35°52' E 014°39'0 0.0
2015-May-02 07:32N 35°52' E 014°39'0 0.0
2015-May-02 06:32N 35°52' E 014°39'0 0.0
2015-May-02 05:26N 35°52' E 014°39'0 0.1
2015-May-02 04:32N 35°52' E 014°39'0 0.0
2015-May-02 03:32N 35°52' E 014°39'0 0.0
2015-May-02 02:32N 35°52' E 014°39'0 0.0
2015-May-02 01:32N 35°52' E 014°39'0 0.0
2015-May-02 00:32N 35°52' E 014°39'0 0.1
2015-May-01 23:32N 35°52' E 014°39'0 0.0
2015-May-01 22:29N 35°52' E 014°39'0 0.0
2015-May-01 21:32N 35°52' E 014°39'0 0.0
2015-May-01 20:32N 35°52' E 014°39'0 0.0
2015-May-01 19:29N 35°52' E 014°39'0 0.0
2015-May-01 18:29N 35°52' E 014°39'0 0.0
2015-May-01 17:32N 35°52' E 014°39'0 0.0
2015-May-01 16:32N 35°51' E 014°39'0 0.1
2015-May-01 15:32N 35°51' E 014°39'0 0.1
2015-May-01 14:32N 35°52' E 014°39'0 0.1
2015-May-01 13:32N 35°51' E 014°39'0 0.1
2015-May-01 12:32N 35°51' E 014°39'0 0.0
2015-May-01 11:32N 35°51' E 014°39'0 0.0
2015-May-01 10:32N 35°51' E 014°39'0 0.0
2015-May-01 09:32N 35°51' E 014°39'0 0.1
2015-May-01 08:32N 35°51' E 014°39'0 0.1
2015-May-01 07:32N 35°51' E 014°39'0 0.0
2015-May-01 06:32N 35°51' E 014°39'0 0.1
2015-May-01 05:32N 35°51' E 014°39'0 0.0
2015-May-01 04:32N 35°51' E 014°39'0 0.0
2015-May-01 03:32N 35°51' E 014°39'0 0.0
2015-May-01 02:32N 35°51' E 014°39'0 0.0
2015-May-01 01:29N 35°51' E 014°39'0 0.0
2015-May-01 00:32N 35°51' E 014°39'0 0.0
2015-Apr-30 23:32N 35°51' E 014°39'0 0.0
2015-Apr-30 22:32N 35°51' E 014°39'0 0.0
2015-Apr-30 21:32N 35°51' E 014°39'0 0.1
2015-Apr-30 20:32N 35°51' E 014°39'0 0.1
2015-Apr-30 19:29N 35°51' E 014°39'0 0.0
2015-Apr-30 18:32N 35°51' E 014°39'0 0.1
2015-Apr-30 17:32N 35°51' E 014°39'0 0.2
2015-Apr-30 16:33N 35°51' E 014°39'8 7.6
2015-Apr-30 15:33N 35°44' E 014°38'10 8.8
2015-Apr-30 14:28N 35°34' E 014°38'4 3.0
2015-Apr-30 13:09N 35°30' E 014°37'1 1.2
2015-Apr-30 12:33N 35°31' E 014°37'1 1.1
2015-Apr-30 11:33N 35°31' E 014°36'1 1.1
2015-Apr-30 10:33N 35°32' E 014°35'6 5.6
2015-Apr-30 09:33N 35°27' E 014°33'9 9.5
2015-Apr-30 08:33N 35°17' E 014°32'10 9.4
2015-Apr-30 07:32N 35°08' E 014°31'10 9.4
2015-Apr-30 06:27N 34°58' E 014°30'9 9.6
2015-Apr-30 05:33N 34°49' E 014°30'1010.2
2015-Apr-30 04:33N 34°39' E 014°29'1010.4
2015-Apr-30 03:33N 34°29' E 014°28'1010.4
2015-Apr-30 02:33N 34°18' E 014°27'1010.3
2015-Apr-30 01:33N 34°08' E 014°26'1010.0
2015-Apr-30 00:33N 33°58' E 014°25'10 9.7
2015-Apr-29 23:33N 33°48' E 014°24'20 9.7
2015-Apr-29 21:31N 33°29' E 014°22'9 9.5
2015-Apr-29 20:33N 33°19' E 014°21'10 9.2
2015-Apr-29 19:26N 33°09' E 014°20'20 9.6
2015-Apr-29 17:18N 32°49' E 014°19'7 9.1
2015-Apr-29 16:33N 32°42' E 014°17'  
2015-Apr-26 16:20N 32°41' E 014°20'0 0.0
2015-Apr-26 14:29N 32°41' E 014°20'0 0.0
2015-Apr-26 13:23N 32°41' E 014°20'  
Track history (hours):
 
Tides and Currents Weather Stations Pressure Air Temp Water Temp Dewpoint Dewpoint Depression Visibility Wind Speed Wind Dir Waves Ship Positions

Alexander Maersk

Last reported at 2015-May-04 06:33 UTC. Time now 2015-May-04 07:01 UTC.
Position N 34°36' E 014°29'.

Length 155 m; draft 9 m.

Type: Ship. MMSI: 219470000.

Date/timePositionNaut miles runAvg speedWind from/ knotsBaromVisibWave heightAir tempDewpointWater temp
2015-May-04 06:33N 34°36' E 014°29'11 8.8
2015-May-04 05:20N 34°46' E 014°30'7 9.1
2015-May-04 04:33N 34°53' E 014°31'9 9.3
2015-May-04 03:33N 35°03' E 014°32'9 9.3
2015-May-04 02:33N 35°12' E 014°32'9 9.1
2015-May-04 01:33N 35°21' E 014°32'9 8.8
2015-May-04 00:33N 35°30' E 014°33'9 8.8
2015-May-03 23:32N 35°39' E 014°34'9 8.9
2015-May-03 22:33N 35°47' E 014°34'2 2.0
2015-May-03 21:29N 35°49' E 014°33'0 0.0
2015-May-03 20:29N 35°49' E 014°33'0 0.0
2015-May-03 19:29N 35°49' E 014°33'0 0.0
2015-May-03 18:32N 35°49' E 014°33'0 0.0
2015-May-03 16:17N 35°49' E 014°33'0 0.0
2015-May-03 13:26N 35°49' E 014°33'0 0.0
2015-May-03 11:05N 35°49' E 014°33'0 0.0
2015-May-03 10:08N 35°49' E 014°33'0 0.0
2015-May-03 09:29N 35°49' E 014°33'0 0.0
2015-May-03 08:32N 35°49' E 014°33'0 0.0
2015-May-03 07:08N 35°49' E 014°33'0 0.0
2015-May-03 06:32N 35°49' E 014°33'0 0.0
2015-May-03 05:20N 35°49' E 014°33'0 0.0
2015-May-03 04:23N 35°49' E 014°33'0 0.0
2015-May-03 03:33N 35°49' E 014°33'0 0.0
2015-May-03 02:23N 35°49' E 014°33'0 0.0
2015-May-03 01:32N 35°49' E 014°33'0 0.0
2015-May-03 00:29N 35°49' E 014°33'0 0.0
2015-May-02 23:29N 35°49' E 014°33'0 0.0
2015-May-02 22:32N 35°49' E 014°33'0 0.0
2015-May-02 21:26N 35°49' E 014°33'0 0.0
2015-May-02 20:29N 35°49' E 014°33'2 1.7
2015-May-02 19:33N 35°49' E 014°35'4 4.5
2015-May-02 18:33N 35°52' E 014°39'0 0.3
2015-May-02 17:32N 35°52' E 014°39'0 0.0
2015-May-02 16:32N 35°52' E 014°39'0 0.0
2015-May-02 15:29N 35°52' E 014°39'0 0.0
2015-May-02 14:26N 35°52' E 014°39'0 0.0
2015-May-02 13:32N 35°52' E 014°39'0 0.0
2015-May-02 12:32N 35°52' E 014°39'0 0.0
2015-May-02 11:32N 35°52' E 014°39'0 0.0
2015-May-02 10:32N 35°52' E 014°39'0 0.0
2015-May-02 09:32N 35°52' E 014°39'0 0.0
2015-May-02 08:32N 35°52' E 014°39'0 0.0
2015-May-02 07:32N 35°52' E 014°39'0 0.0
2015-May-02 06:32N 35°52' E 014°39'0 0.0
2015-May-02 05:26N 35°52' E 014°39'0 0.1
2015-May-02 04:32N 35°52' E 014°39'0 0.0
2015-May-02 03:32N 35°52' E 014°39'0 0.0
2015-May-02 02:32N 35°52' E 014°39'0 0.0
2015-May-02 01:32N 35°52' E 014°39'0 0.0
2015-May-02 00:32N 35°52' E 014°39'0 0.1
2015-May-01 23:32N 35°52' E 014°39'0 0.0
2015-May-01 22:29N 35°52' E 014°39'0 0.0
2015-May-01 21:32N 35°52' E 014°39'0 0.0
2015-May-01 20:32N 35°52' E 014°39'0 0.0
2015-May-01 19:29N 35°52' E 014°39'0 0.0
2015-May-01 18:29N 35°52' E 014°39'0 0.0
2015-May-01 17:32N 35°52' E 014°39'0 0.0
2015-May-01 16:32N 35°51' E 014°39'0 0.1
2015-May-01 15:32N 35°51' E 014°39'0 0.1
2015-May-01 14:32N 35°52' E 014°39'0 0.1
2015-May-01 13:32N 35°51' E 014°39'0 0.1
2015-May-01 12:32N 35°51' E 014°39'0 0.0
2015-May-01 11:32N 35°51' E 014°39'0 0.0
2015-May-01 10:32N 35°51' E 014°39'0 0.0
2015-May-01 09:32N 35°51' E 014°39'0 0.1
2015-May-01 08:32N 35°51' E 014°39'0 0.1
2015-May-01 07:32N 35°51' E 014°39'0 0.0
2015-May-01 06:32N 35°51' E 014°39'0 0.1
2015-May-01 05:32N 35°51' E 014°39'0 0.0
2015-May-01 04:32N 35°51' E 014°39'0 0.0
2015-May-01 03:32N 35°51' E 014°39'0 0.0
2015-May-01 02:32N 35°51' E 014°39'0 0.0
2015-May-01 01:29N 35°51' E 014°39'0 0.0
2015-May-01 00:32N 35°51' E 014°39'0 0.0
2015-Apr-30 23:32N 35°51' E 014°39'0 0.0
2015-Apr-30 22:32N 35°51' E 014°39'0 0.0
2015-Apr-30 21:32N 35°51' E 014°39'0 0.1
2015-Apr-30 20:32N 35°51' E 014°39'0 0.1
2015-Apr-30 19:29N 35°51' E 014°39'0 0.0
2015-Apr-30 18:32N 35°51' E 014°39'0 0.1
2015-Apr-30 17:32N 35°51' E 014°39'0 0.2
2015-Apr-30 16:33N 35°51' E 014°39'8 7.6
2015-Apr-30 15:33N 35°44' E 014°38'10 8.8
2015-Apr-30 14:28N 35°34' E 014°38'4 3.0
2015-Apr-30 13:09N 35°30' E 014°37'1 1.2
2015-Apr-30 12:33N 35°31' E 014°37'1 1.1
2015-Apr-30 11:33N 35°31' E 014°36'1 1.1
2015-Apr-30 10:33N 35°32' E 014°35'6 5.6
2015-Apr-30 09:33N 35°27' E 014°33'9 9.5
2015-Apr-30 08:33N 35°17' E 014°32'10 9.4
2015-Apr-30 07:32N 35°08' E 014°31'10 9.4
2015-Apr-30 06:27N 34°58' E 014°30'9 9.6
2015-Apr-30 05:33N 34°49' E 014°30'1010.2
2015-Apr-30 04:33N 34°39' E 014°29'1010.4
2015-Apr-30 03:33N 34°29' E 014°28'1010.4
2015-Apr-30 02:33N 34°18' E 014°27'1010.3
2015-Apr-30 01:33N 34°08' E 014°26'1010.0
2015-Apr-30 00:33N 33°58' E 014°25'10 9.7
2015-Apr-29 23:33N 33°48' E 014°24'20 9.7
2015-Apr-29 21:31N 33°29' E 014°22'9 9.5
2015-Apr-29 20:33N 33°19' E 014°21'10 9.2
2015-Apr-29 19:26N 33°09' E 014°20'20 9.6
2015-Apr-29 17:18N 32°49' E 014°19'7 9.1
2015-Apr-29 16:33N 32°42' E 014°17'  
2015-Apr-26 16:20N 32°41' E 014°20'0 0.0
2015-Apr-26 14:29N 32°41' E 014°20'0 0.0
2015-Apr-26 13:23N 32°41' E 014°20'  

Dump ship's entire track history